createdAt,value
2018-11-11T00:01:50.593Z,100.00
2018-11-11T00:04:20.285Z,100.00
2018-11-11T00:06:50.336Z,100.00
2018-11-11T00:09:20.817Z,100.00
2018-11-11T00:11:50.508Z,100.00
2018-11-11T00:14:20.231Z,100.00
2018-11-11T00:16:50.030Z,100.00
2018-11-11T00:19:19.785Z,100.00
2018-11-11T00:21:49.692Z,100.00
2018-11-11T00:24:19.402Z,100.00
2018-11-11T00:26:49.112Z,100.00
2018-11-11T00:29:19.438Z,100.00
2018-11-11T00:31:49.222Z,100.00
2018-11-11T00:34:18.992Z,100.00
2018-11-11T00:36:48.696Z,100.00
2018-11-11T00:39:18.386Z,100.00
2018-11-11T00:41:48.122Z,100.00
2018-11-11T00:44:17.885Z,100.00
2018-11-11T00:46:47.593Z,100.00
2018-11-11T00:49:17.497Z,100.00
2018-11-11T00:51:47.296Z,100.00
2018-11-11T00:54:17.153Z,100.00
2018-11-11T00:56:47.002Z,100.00
2018-11-11T00:59:16.717Z,100.00
2018-11-11T01:01:46.463Z,100.00
2018-11-11T01:04:16.258Z,100.00
2018-11-11T01:06:45.913Z,100.00
2018-11-11T01:09:15.785Z,100.00
2018-11-11T01:11:45.510Z,100.00
2018-11-11T01:14:15.393Z,100.00
2018-11-11T01:16:45.113Z,100.00
2018-11-11T01:19:14.903Z,100.00
2018-11-11T01:21:45.183Z,100.00
2018-11-11T01:24:15.005Z,100.00
2018-11-11T01:26:44.706Z,100.00
2018-11-11T01:29:14.413Z,100.00
2018-11-11T01:31:44.082Z,100.00
2018-11-11T01:34:14.094Z,100.00
2018-11-11T01:36:44.011Z,100.00
2018-11-11T01:39:14.442Z,100.00
2018-11-11T01:41:44.180Z,100.00
2018-11-11T01:44:13.984Z,100.00
2018-11-11T01:46:44.062Z,100.00
2018-11-11T01:49:13.908Z,100.00
2018-11-11T01:51:43.647Z,100.00
2018-11-11T01:54:13.334Z,100.00
2018-11-11T01:56:43.017Z,100.00
2018-11-11T01:59:12.719Z,100.00
2018-11-11T02:01:42.459Z,100.00
2018-11-11T02:04:12.185Z,100.00
2018-11-11T02:06:41.906Z,100.00
2018-11-11T02:09:12.445Z,100.00
2018-11-11T02:11:45.011Z,100.00
2018-11-11T02:14:14.716Z,100.00
2018-11-11T02:16:44.459Z,100.00
2018-11-11T02:19:15.149Z,100.00
2018-11-11T02:21:44.985Z,100.00
2018-11-11T02:24:14.830Z,100.00
2018-11-11T02:26:44.488Z,100.00
2018-11-11T02:29:14.135Z,100.00
2018-11-11T02:31:44.435Z,100.00
2018-11-11T02:34:14.708Z,100.00
2018-11-11T02:36:44.338Z,100.00
2018-11-11T02:39:13.995Z,100.00
2018-11-11T02:41:43.866Z,100.00
2018-11-11T02:44:13.637Z,100.00
2018-11-11T02:46:43.526Z,100.00
2018-11-11T02:49:13.317Z,99.62
2018-11-11T02:51:43.109Z,100.00
2018-11-11T02:54:13.080Z,99.09
2018-11-11T02:56:42.758Z,99.06
2018-11-11T02:59:13.022Z,98.73
2018-11-11T03:01:42.766Z,97.72
2018-11-11T03:04:12.450Z,97.52
2018-11-11T03:06:42.137Z,98.12
2018-11-11T03:09:12.854Z,97.12
2018-11-11T03:11:42.557Z,96.41
2018-11-11T03:14:12.269Z,97.00
2018-11-11T03:16:41.928Z,97.98
2018-11-11T03:19:11.749Z,96.71
2018-11-11T03:21:42.302Z,97.10
2018-11-11T03:24:12.039Z,94.89
2018-11-11T03:26:41.754Z,95.42
2018-11-11T03:29:11.408Z,96.53
2018-11-11T03:31:41.093Z,95.90
2018-11-11T03:34:10.858Z,97.28
2018-11-11T03:36:41.202Z,96.24
2018-11-11T03:39:11.382Z,96.73
2018-11-11T03:41:41.124Z,96.56
2018-11-11T03:44:10.809Z,98.81
2018-11-11T03:46:40.494Z,98.12
2018-11-11T03:49:10.349Z,98.78
2018-11-11T03:51:40.131Z,98.13
2018-11-11T03:54:09.840Z,98.37
2018-11-11T03:56:39.816Z,97.69
2018-11-11T03:59:09.699Z,98.02
2018-11-11T04:01:39.394Z,97.89
2018-11-11T04:04:09.186Z,98.44
2018-11-11T04:06:40.935Z,97.67
2018-11-11T04:09:12.428Z,99.03
2018-11-11T04:11:42.447Z,99.67
2018-11-11T04:14:12.176Z,98.95
2018-11-11T04:16:41.856Z,98.68
2018-11-11T04:19:11.626Z,98.94
2018-11-11T04:21:41.359Z,97.90
2018-11-11T04:24:11.053Z,98.76
2018-11-11T04:26:40.878Z,96.67
2018-11-11T04:29:10.591Z,97.37
2018-11-11T04:31:41.136Z,98.33
2018-11-11T04:34:10.932Z,97.00
2018-11-11T04:36:40.671Z,97.82
2018-11-11T04:39:12.513Z,96.42
2018-11-11T04:41:42.253Z,95.31
2018-11-11T04:44:11.937Z,96.12
2018-11-11T04:46:41.713Z,95.13
2018-11-11T04:49:11.392Z,96.94
2018-11-11T04:51:41.053Z,96.17
2018-11-11T04:54:10.749Z,96.30
2018-11-11T04:56:40.982Z,96.33
2018-11-11T04:59:10.811Z,96.63
2018-11-11T05:01:40.724Z,95.46
2018-11-11T05:04:10.244Z,94.86
2018-11-11T05:06:40.443Z,94.44
2018-11-11T05:09:12.520Z,93.93
2018-11-11T05:11:42.424Z,94.11
2018-11-11T05:14:12.122Z,95.04
2018-11-11T05:16:41.907Z,94.58
2018-11-11T05:19:12.063Z,94.89
2018-11-11T05:21:41.813Z,95.68
2018-11-11T05:24:11.462Z,94.70
2018-11-11T05:26:41.193Z,93.30
2018-11-11T05:29:10.927Z,96.35
2018-11-11T05:31:40.639Z,94.52
2018-11-11T05:34:10.298Z,93.67
2018-11-11T05:36:39.976Z,95.16
2018-11-11T05:39:12.178Z,94.52
2018-11-11T05:41:42.183Z,94.23
2018-11-11T05:44:11.881Z,93.75
2018-11-11T05:46:41.688Z,93.05
2018-11-11T05:49:11.390Z,93.56
2018-11-11T05:51:41.054Z,93.15
2018-11-11T05:54:10.728Z,93.32
2018-11-11T05:56:40.432Z,94.28
2018-11-11T05:59:10.106Z,94.04
2018-11-11T06:01:39.829Z,93.11
2018-11-11T06:04:09.516Z,92.09
2018-11-11T06:06:39.863Z,92.62
2018-11-11T06:09:11.739Z,93.42
2018-11-11T06:11:41.420Z,94.00
2018-11-11T06:14:11.074Z,93.22
2018-11-11T06:16:40.758Z,93.05
2018-11-11T06:19:10.438Z,92.37
2018-11-11T06:21:40.097Z,92.41
2018-11-11T06:24:09.876Z,92.69
2018-11-11T06:26:39.564Z,93.87
2018-11-11T06:29:09.438Z,92.59
2018-11-11T06:31:39.104Z,92.98
2018-11-11T06:34:08.902Z,92.52
2018-11-11T06:36:38.702Z,92.67
2018-11-11T06:39:10.834Z,92.39
2018-11-11T06:41:40.681Z,92.05
2018-11-11T06:44:10.516Z,91.25
2018-11-11T06:46:40.203Z,90.85
2018-11-11T06:49:09.949Z,91.01
2018-11-11T06:51:40.314Z,90.97
2018-11-11T06:54:10.076Z,91.57
2018-11-11T06:56:39.793Z,91.28
2018-11-11T06:59:09.674Z,91.21
2018-11-11T07:01:39.556Z,90.99
2018-11-11T07:04:09.258Z,90.56
2018-11-11T07:06:39.067Z,89.86
2018-11-11T07:09:08.995Z,90.26
2018-11-11T07:11:39.237Z,90.53
2018-11-11T07:14:09.115Z,89.66
2018-11-11T07:16:38.785Z,87.68
2018-11-11T07:19:09.241Z,87.50
2018-11-11T07:21:39.102Z,86.94
2018-11-11T07:24:08.828Z,87.48
2018-11-11T07:26:38.814Z,86.88
2018-11-11T07:29:08.617Z,86.05
2018-11-11T07:31:38.346Z,85.76
2018-11-11T07:34:08.109Z,85.35
2018-11-11T07:36:37.813Z,86.73
2018-11-11T07:39:12.632Z,85.61
2018-11-11T07:41:42.447Z,85.09
2018-11-11T07:44:12.174Z,85.83
2018-11-11T07:46:41.873Z,85.64
2018-11-11T07:49:11.626Z,85.96
2018-11-11T07:51:41.395Z,86.42
2018-11-11T07:54:11.081Z,86.09
2018-11-11T07:56:41.158Z,86.43
2018-11-11T07:59:10.855Z,86.82
2018-11-11T08:01:40.772Z,86.15
2018-11-11T08:04:10.477Z,85.89
2018-11-11T08:06:40.238Z,87.49
2018-11-11T08:09:09.985Z,86.23
2018-11-11T08:12:02.715Z,87.42
2018-11-11T08:14:32.507Z,85.91
2018-11-11T08:17:02.221Z,86.53
2018-11-11T08:19:31.925Z,86.68
2018-11-11T08:22:01.722Z,86.74
2018-11-11T08:24:31.505Z,86.61
2018-11-11T08:27:01.235Z,86.76
2018-11-11T08:29:30.925Z,86.29
2018-11-11T08:32:00.650Z,85.43
2018-11-11T08:34:30.587Z,84.44
2018-11-11T08:37:00.348Z,83.33
2018-11-11T08:39:30.118Z,83.69
2018-11-11T08:41:59.813Z,84.74
2018-11-11T08:44:29.518Z,86.17
2018-11-11T08:46:59.363Z,86.06
2018-11-11T08:49:29.049Z,85.39
2018-11-11T08:51:58.810Z,85.44
2018-11-11T08:54:28.930Z,85.00
2018-11-11T08:56:58.643Z,83.81
2018-11-11T08:59:28.340Z,83.44
2018-11-11T09:01:58.100Z,84.40
2018-11-11T09:04:28.373Z,83.68
2018-11-11T09:06:58.096Z,83.21
2018-11-11T09:09:27.904Z,82.22
2018-11-11T09:11:58.390Z,82.39
2018-11-11T09:14:28.190Z,81.72
2018-11-11T09:16:57.946Z,81.87
2018-11-11T09:19:27.725Z,82.33
2018-11-11T09:21:58.745Z,81.61
2018-11-11T09:24:28.500Z,77.94
2018-11-11T09:26:58.184Z,77.70
2018-11-11T09:29:28.319Z,76.50
2018-11-11T09:31:58.125Z,76.72
2018-11-11T09:34:27.869Z,75.34
2018-11-11T09:36:57.565Z,74.50
2018-11-11T09:39:27.613Z,70.52
2018-11-11T09:41:57.932Z,69.26
2018-11-11T09:44:27.633Z,70.10
2018-11-11T09:46:57.327Z,73.82
2018-11-11T09:49:27.226Z,72.50
2018-11-11T09:51:56.906Z,73.25
2018-11-11T09:54:26.666Z,72.25
2018-11-11T09:56:56.352Z,73.41
2018-11-11T09:59:26.007Z,72.53
2018-11-11T10:01:56.854Z,71.99
2018-11-11T10:04:33.492Z,72.54
2018-11-11T10:07:07.136Z,72.52
2018-11-11T10:09:45.417Z,72.38
2018-11-11T10:13:19.186Z,73.40
2018-11-11T10:16:26.063Z,73.41
2018-11-11T10:19:06.169Z,74.46
2018-11-11T10:22:42.523Z,73.05
2018-11-11T10:25:31.111Z,74.13
2018-11-11T10:28:11.639Z,74.39
2018-11-11T10:30:47.965Z,73.60
2018-11-11T10:33:28.330Z,72.92
2018-11-11T10:36:16.662Z,72.40
2018-11-11T10:38:52.394Z,72.45
2018-11-11T10:41:36.914Z,69.41
2018-11-11T10:44:11.147Z,70.76
2018-11-11T10:46:44.364Z,72.13
2018-11-11T10:49:18.990Z,72.33
2018-11-11T10:51:48.721Z,72.16
2018-11-11T10:54:18.653Z,72.21
2018-11-11T10:56:48.401Z,70.67
2018-11-11T10:59:18.294Z,71.86
2018-11-11T11:01:53.011Z,72.04
2018-11-11T11:04:22.953Z,72.09
2018-11-11T11:06:57.853Z,72.51
2018-11-11T11:09:27.637Z,71.48
2018-11-11T11:11:57.548Z,72.78
2018-11-11T11:14:27.382Z,72.74
2018-11-11T11:16:57.079Z,72.49
2018-11-11T11:19:27.114Z,71.80
2018-11-11T11:21:56.839Z,71.23
2018-11-11T11:24:26.720Z,72.19
2018-11-11T11:26:56.668Z,71.63
2018-11-11T11:29:26.492Z,71.33
2018-11-11T11:31:56.338Z,71.83
2018-11-11T11:34:26.085Z,71.14
2018-11-11T11:36:55.803Z,71.18
2018-11-11T11:39:25.525Z,71.19
2018-11-11T11:41:55.221Z,70.97
2018-11-11T11:44:24.919Z,69.81
2018-11-11T11:46:54.923Z,69.85
2018-11-11T11:49:24.880Z,70.09
2018-11-11T11:51:54.753Z,69.99
2018-11-11T11:54:24.524Z,70.94
2018-11-11T11:57:04.227Z,69.36
2018-11-11T11:59:35.684Z,69.24
2018-11-11T12:02:08.858Z,69.96
2018-11-11T12:04:46.745Z,70.07
2018-11-11T12:07:17.755Z,71.90
2018-11-11T12:09:52.129Z,71.43
2018-11-11T12:12:23.060Z,72.49
2018-11-11T12:14:58.883Z,71.39
2018-11-11T12:17:37.283Z,71.43
2018-11-11T12:20:11.177Z,72.11
2018-11-11T12:22:45.408Z,73.46
2018-11-11T12:25:22.577Z,72.82
2018-11-11T12:27:58.946Z,72.32
2018-11-11T12:30:31.230Z,73.55
2018-11-11T12:35:55.537Z,73.37
2018-11-11T12:38:39.375Z,73.18
2018-11-11T12:44:00.283Z,73.05
2018-11-11T12:46:39.747Z,73.46
2018-11-11T12:49:25.546Z,73.61
2018-11-11T12:52:01.688Z,74.64
2018-11-11T12:54:34.074Z,74.22
2018-11-11T12:57:06.866Z,74.38
2018-11-11T12:59:37.473Z,74.76
2018-11-11T13:02:11.826Z,74.80
2018-11-11T13:04:43.321Z,73.56
2018-11-11T13:07:14.725Z,74.70
2018-11-11T13:09:45.615Z,74.40
2018-11-11T13:12:17.379Z,74.72
2018-11-11T13:14:49.897Z,74.86
2018-11-11T13:17:22.491Z,75.67
2018-11-11T13:19:54.818Z,78.53
2018-11-11T13:22:26.157Z,76.93
2018-11-11T13:24:56.405Z,78.56
2018-11-11T13:27:26.125Z,80.41
2018-11-11T13:29:56.563Z,83.15
2018-11-11T13:32:26.331Z,85.41
2018-11-11T13:34:56.346Z,85.84
2018-11-11T13:37:26.264Z,89.24
2018-11-11T13:39:56.066Z,88.50
2018-11-11T13:42:26.190Z,91.40
2018-11-11T13:44:56.184Z,94.38
2018-11-11T13:47:25.971Z,94.49
2018-11-11T13:49:55.738Z,97.25
2018-11-11T13:52:25.520Z,98.21
2018-11-11T13:54:55.254Z,100.00
2018-11-11T13:57:24.946Z,100.00
2018-11-11T13:59:54.689Z,100.00
2018-11-11T14:02:24.672Z,100.00
2018-11-11T14:04:54.468Z,100.00
2018-11-11T14:07:24.237Z,100.00
2018-11-11T14:09:53.899Z,100.00
2018-11-11T14:12:23.694Z,100.00
2018-11-11T14:14:53.526Z,100.00
2018-11-11T14:17:23.257Z,100.00
2018-11-11T14:19:53.021Z,100.00
2018-11-11T14:22:22.703Z,100.00
2018-11-11T14:24:52.736Z,100.00
2018-11-11T14:27:22.324Z,100.00
2018-11-11T14:29:52.168Z,100.00
2018-11-11T14:32:22.025Z,100.00
2018-11-11T14:34:52.119Z,100.00
2018-11-11T14:37:22.952Z,100.00
2018-11-11T14:39:52.872Z,100.00
2018-11-11T14:42:22.653Z,100.00
2018-11-11T14:44:52.358Z,100.00
2018-11-11T14:47:22.143Z,100.00
2018-11-11T14:49:52.040Z,100.00
2018-11-11T14:52:22.024Z,100.00
2018-11-11T14:54:52.004Z,100.00
2018-11-11T14:57:21.803Z,100.00
2018-11-11T14:59:51.536Z,100.00
2018-11-11T15:02:21.354Z,100.00
2018-11-11T15:04:51.159Z,100.00
2018-11-11T15:07:20.930Z,100.00
2018-11-11T15:09:50.638Z,100.00
2018-11-11T15:12:20.549Z,100.00
2018-11-11T15:14:50.237Z,100.00
2018-11-11T15:17:20.017Z,100.00
2018-11-11T15:19:49.779Z,100.00
2018-11-11T15:22:19.515Z,100.00
2018-11-11T15:24:49.359Z,100.00
2018-11-11T15:27:19.149Z,100.00
2018-11-11T15:29:48.938Z,100.00
2018-11-11T15:32:18.804Z,100.00
2018-11-11T15:34:48.672Z,100.00
2018-11-11T15:37:18.442Z,100.00
2018-11-11T15:39:48.203Z,100.00
2018-11-11T15:42:18.050Z,100.00
2018-11-11T15:44:47.783Z,100.00
2018-11-11T15:47:17.586Z,100.00
2018-11-11T15:49:47.368Z,100.00
2018-11-11T15:52:17.245Z,100.00
2018-11-11T15:54:46.987Z,100.00
2018-11-11T15:57:16.787Z,100.00
2018-11-11T15:59:46.482Z,100.00
2018-11-11T16:02:16.402Z,100.00
2018-11-11T16:04:46.170Z,100.00
2018-11-11T16:07:15.966Z,100.00
2018-11-11T16:09:45.734Z,100.00
2018-11-11T16:12:15.463Z,100.00
2018-11-11T16:14:45.394Z,100.00
2018-11-11T16:17:15.120Z,100.00
2018-11-11T16:19:44.903Z,100.00
2018-11-11T16:22:14.583Z,100.00
2018-11-11T16:24:44.397Z,100.00
2018-11-11T16:27:14.106Z,100.00
2018-11-11T16:29:43.829Z,100.00
2018-11-11T16:32:13.600Z,100.00
2018-11-11T16:34:43.323Z,100.00
2018-11-11T16:37:13.162Z,100.00
2018-11-11T16:39:42.932Z,100.00
2018-11-11T16:42:12.610Z,100.00
2018-11-11T16:44:42.361Z,100.00
2018-11-11T16:47:12.072Z,100.00
2018-11-11T16:49:41.819Z,98.98
2018-11-11T16:52:12.246Z,99.32
2018-11-11T16:54:41.959Z,99.32
2018-11-11T16:57:11.998Z,99.20
2018-11-11T16:59:42.253Z,98.85
2018-11-11T17:02:13.295Z,98.45
2018-11-11T17:04:42.992Z,97.59
2018-11-11T17:07:12.683Z,98.03
2018-11-11T17:09:43.486Z,99.38
2018-11-11T17:12:13.266Z,98.18
2018-11-11T17:14:43.023Z,98.51
2018-11-11T17:17:13.044Z,98.89
2018-11-11T17:19:42.789Z,99.06
2018-11-11T17:22:16.580Z,100.00
2018-11-11T17:24:47.820Z,100.00
2018-11-11T17:27:17.681Z,99.79
2018-11-11T17:29:48.401Z,100.00
2018-11-11T17:32:18.327Z,100.00
2018-11-11T17:34:48.495Z,100.00
2018-11-11T17:37:20.079Z,100.00
2018-11-11T17:42:29.599Z,96.43
2018-11-11T17:44:59.453Z,95.96
2018-11-11T17:47:29.187Z,96.51
2018-11-11T17:49:59.471Z,95.43
2018-11-11T17:52:32.797Z,93.41
2018-11-11T17:55:07.333Z,92.89
2018-11-11T17:57:41.007Z,92.63
2018-11-11T18:00:14.282Z,93.47
2018-11-11T18:02:44.266Z,93.25
2018-11-11T18:05:15.230Z,93.80
2018-11-11T18:07:45.179Z,93.87
2018-11-11T18:10:16.373Z,95.89
2018-11-11T18:12:47.330Z,95.30
2018-11-11T18:15:19.370Z,97.33
2018-11-11T18:17:52.763Z,97.67
2018-11-11T18:20:25.142Z,97.21
2018-11-11T18:22:59.485Z,97.29
2018-11-11T18:25:30.630Z,96.55
2018-11-11T18:28:01.976Z,98.93
2018-11-11T18:30:37.721Z,98.38
2018-11-11T18:33:14.514Z,97.58
2018-11-11T18:35:46.210Z,97.68
2018-11-11T18:38:16.196Z,96.86
2018-11-11T18:40:48.733Z,100.00
2018-11-11T18:43:22.320Z,99.81
2018-11-11T18:45:57.065Z,99.37
2018-11-11T18:48:27.722Z,98.57
2018-11-11T18:50:59.982Z,97.89
2018-11-11T18:53:32.007Z,100.00
2018-11-11T18:56:01.760Z,100.00
2018-11-11T18:58:31.402Z,100.00
2018-11-11T19:01:02.947Z,100.00
2018-11-11T19:03:32.810Z,100.00
2018-11-11T19:06:03.337Z,100.00
2018-11-11T19:08:33.108Z,100.00
2018-11-11T19:11:03.093Z,100.00
2018-11-11T19:13:32.749Z,100.00
2018-11-11T19:16:02.586Z,100.00
2018-11-11T19:18:32.342Z,100.00
2018-11-11T19:21:02.188Z,100.00
2018-11-11T19:23:31.990Z,100.00
2018-11-11T19:26:02.259Z,100.00
2018-11-11T19:28:32.033Z,100.00
2018-11-11T19:31:01.959Z,100.00
2018-11-11T19:33:31.822Z,100.00
2018-11-11T19:36:01.545Z,100.00
2018-11-11T19:38:31.334Z,100.00
2018-11-11T19:41:01.094Z,100.00
2018-11-11T19:43:30.916Z,100.00
2018-11-11T19:46:00.718Z,100.00
2018-11-11T19:48:30.609Z,100.00
2018-11-11T19:51:00.651Z,100.00
2018-11-11T19:53:30.413Z,100.00
2018-11-11T19:56:00.157Z,100.00
2018-11-11T19:58:29.842Z,100.00
2018-11-11T20:00:59.849Z,100.00
2018-11-11T20:03:29.774Z,100.00
2018-11-11T20:05:59.755Z,100.00
2018-11-11T20:08:29.530Z,100.00
2018-11-11T20:10:59.348Z,100.00
2018-11-11T20:13:29.324Z,100.00
2018-11-11T20:16:05.754Z,100.00
2018-11-11T20:18:36.437Z,100.00
2018-11-11T20:21:09.906Z,100.00
2018-11-11T20:23:42.104Z,100.00
2018-11-11T20:26:19.043Z,100.00
2018-11-11T20:29:03.700Z,100.00
2018-11-11T20:31:38.845Z,100.00
2018-11-11T20:34:10.916Z,100.00
2018-11-11T20:36:43.059Z,100.00
2018-11-11T20:39:13.786Z,100.00
2018-11-11T20:41:45.147Z,100.00
2018-11-11T20:44:15.066Z,100.00
2018-11-11T20:46:45.220Z,100.00
2018-11-11T20:49:15.019Z,100.00
2018-11-11T20:51:44.799Z,100.00
2018-11-11T20:54:14.591Z,100.00
2018-11-11T20:56:44.456Z,100.00
2018-11-11T20:59:14.179Z,100.00
2018-11-11T21:01:43.993Z,100.00
2018-11-11T21:04:13.826Z,100.00
2018-11-11T21:06:43.567Z,100.00
2018-11-11T21:09:14.446Z,100.00
2018-11-11T21:11:44.399Z,100.00
2018-11-11T21:14:14.184Z,100.00
2018-11-11T21:16:43.929Z,100.00
2018-11-11T21:19:13.643Z,100.00
2018-11-11T21:21:43.426Z,100.00
2018-11-11T21:24:13.135Z,100.00
2018-11-11T21:26:42.882Z,100.00
2018-11-11T21:29:12.694Z,100.00
2018-11-11T21:31:42.452Z,100.00
2018-11-11T21:34:12.211Z,100.00
2018-11-11T21:36:41.938Z,100.00
2018-11-11T21:39:13.601Z,100.00
2018-11-11T21:41:43.341Z,100.00
2018-11-11T21:44:13.036Z,100.00
2018-11-11T21:46:43.590Z,100.00
2018-11-11T21:49:13.423Z,100.00
2018-11-11T21:51:43.158Z,100.00
2018-11-11T21:54:13.001Z,100.00
2018-11-11T21:56:42.808Z,100.00
2018-11-11T21:59:12.529Z,100.00
2018-11-11T22:01:42.329Z,100.00
2018-11-11T22:04:12.098Z,100.00
2018-11-11T22:06:41.900Z,100.00
2018-11-11T22:09:12.141Z,100.00
2018-11-11T22:11:41.973Z,100.00
2018-11-11T22:14:11.626Z,100.00
2018-11-11T22:16:41.397Z,100.00
2018-11-11T22:19:11.219Z,100.00
2018-11-11T22:21:41.235Z,100.00
2018-11-11T22:24:10.998Z,100.00
2018-11-11T22:26:40.757Z,100.00
2018-11-11T22:29:10.708Z,100.00
2018-11-11T22:31:40.393Z,100.00
2018-11-11T22:34:10.173Z,100.00
2018-11-11T22:36:40.068Z,100.00
2018-11-11T22:39:11.319Z,100.00
2018-11-11T22:41:41.201Z,100.00
2018-11-11T22:44:11.035Z,100.00
2018-11-11T22:46:40.784Z,100.00
2018-11-11T22:49:10.530Z,100.00
2018-11-11T22:51:40.431Z,100.00
2018-11-11T22:54:10.166Z,100.00
2018-11-11T22:56:39.897Z,100.00
2018-11-11T22:59:09.850Z,100.00
2018-11-11T23:01:39.585Z,100.00
2018-11-11T23:04:09.265Z,100.00
2018-11-11T23:06:39.058Z,100.00
2018-11-11T23:09:11.251Z,100.00
2018-11-11T23:11:41.404Z,100.00
2018-11-11T23:14:11.065Z,100.00
2018-11-11T23:16:40.818Z,100.00
2018-11-11T23:19:10.783Z,100.00
2018-11-11T23:21:40.512Z,100.00
2018-11-11T23:24:10.237Z,100.00
2018-11-11T23:26:39.928Z,100.00
2018-11-11T23:29:09.689Z,100.00
2018-11-11T23:31:39.358Z,100.00
2018-11-11T23:34:09.061Z,100.00
2018-11-11T23:36:38.965Z,100.00
2018-11-11T23:39:10.473Z,100.00
2018-11-11T23:41:40.218Z,100.00
2018-11-11T23:44:10.332Z,100.00
2018-11-11T23:46:40.244Z,100.00
2018-11-11T23:49:10.576Z,100.00
2018-11-11T23:51:40.355Z,100.00
2018-11-11T23:54:10.129Z,100.00
2018-11-11T23:56:40.098Z,100.00
2018-11-11T23:59:10.014Z,100.00
